createdAt,value
2019-02-16T00:00:54.327Z,7.30
2019-02-16T00:03:23.675Z,5.63
2019-02-16T00:05:53.575Z,10.33
2019-02-16T00:08:23.716Z,9.87
2019-02-16T00:10:53.077Z,8.33
2019-02-16T00:13:22.418Z,6.80
2019-02-16T00:15:52.731Z,6.73
2019-02-16T00:18:23.037Z,6.37
2019-02-16T00:20:52.511Z,7.10
2019-02-16T00:23:22.715Z,6.23
2019-02-16T00:25:52.057Z,6.73
2019-02-16T00:28:21.412Z,6.80
2019-02-16T00:30:50.779Z,8.30
2019-02-16T00:33:20.154Z,6.60
2019-02-16T00:35:49.511Z,6.13
2019-02-16T00:38:18.882Z,9.20
2019-02-16T00:40:48.245Z,6.10
2019-02-16T00:43:17.589Z,7.07
2019-02-16T00:45:47.432Z,7.67
2019-02-16T00:48:16.783Z,7.43
2019-02-16T00:50:46.140Z,6.57
2019-02-16T00:53:16.274Z,7.07
2019-02-16T00:55:45.647Z,6.90
2019-02-16T00:58:14.999Z,7.40
2019-02-16T01:00:44.361Z,6.00
2019-02-16T01:03:13.724Z,6.53
2019-02-16T01:05:43.144Z,7.13
2019-02-16T01:08:13.110Z,6.33
2019-02-16T01:10:42.478Z,7.67
2019-02-16T01:13:11.822Z,8.07
2019-02-16T01:15:45.219Z,5.93
2019-02-16T01:18:14.575Z,7.87
2019-02-16T01:20:43.926Z,8.07
2019-02-16T01:23:14.266Z,7.20
2019-02-16T01:25:43.618Z,7.42
2019-02-16T01:28:12.958Z,7.73
2019-02-16T01:30:43.084Z,6.93
2019-02-16T01:33:12.441Z,7.40
2019-02-16T01:35:41.807Z,6.83
2019-02-16T01:38:11.178Z,7.77
2019-02-16T01:40:40.554Z,7.00
2019-02-16T01:43:09.901Z,7.53
2019-02-16T01:45:39.285Z,7.40
2019-02-16T01:48:08.654Z,7.17
2019-02-16T01:50:38.019Z,7.60
2019-02-16T01:53:11.202Z,8.27
2019-02-16T02:14:07.954Z,6.47
2019-02-16T02:16:38.079Z,7.33
2019-02-16T02:19:08.092Z,6.97
2019-02-16T02:21:41.145Z,7.70
2019-02-16T02:24:08.553Z,8.07
2019-02-16T02:26:37.894Z,7.07
2019-02-16T02:29:07.297Z,6.03
2019-02-16T02:31:37.560Z,9.23
2019-02-16T02:34:06.995Z,7.33
2019-02-16T02:36:42.448Z,7.57
2019-02-16T02:39:11.825Z,8.57
2019-02-16T02:41:41.195Z,8.03
2019-02-16T02:44:12.180Z,7.50
2019-02-16T02:46:41.563Z,7.03
2019-02-16T02:49:10.933Z,7.93
2019-02-16T02:51:51.521Z,8.83
2019-02-16T02:54:11.762Z,9.63
2019-02-16T02:56:41.113Z,11.13
2019-02-16T02:59:10.486Z,8.00
2019-02-16T03:01:39.838Z,8.03
2019-02-16T03:04:09.200Z,11.03
2019-02-16T03:06:38.589Z,7.55
2019-02-16T03:09:08.012Z,8.77
2019-02-16T03:11:37.361Z,8.30
2019-02-16T03:14:07.783Z,7.50
2019-02-16T03:16:38.575Z,8.43
2019-02-16T03:19:07.950Z,8.37
2019-02-16T03:21:37.311Z,8.37
2019-02-16T03:24:06.685Z,9.83
2019-02-16T03:26:49.737Z,7.80
2019-02-16T03:29:38.091Z,7.50
2019-02-16T03:32:34.921Z,7.77
2019-02-16T03:35:38.883Z,7.63
2019-02-16T03:38:21.247Z,8.17
2019-02-16T03:40:50.963Z,8.55
2019-02-16T03:43:20.300Z,6.43
2019-02-16T03:45:49.691Z,8.50
2019-02-16T03:48:19.036Z,7.27
2019-02-16T03:50:48.427Z,7.90
2019-02-16T03:53:17.869Z,8.30
2019-02-16T03:55:47.243Z,8.33
2019-02-16T03:58:16.618Z,7.57
2019-02-16T04:00:47.065Z,7.00
2019-02-16T04:03:16.450Z,8.13
2019-02-16T04:05:45.796Z,6.43
2019-02-16T04:08:19.149Z,7.70
2019-02-16T04:10:48.528Z,7.22
2019-02-16T04:13:17.891Z,7.87
2019-02-16T04:15:48.233Z,8.30
2019-02-16T04:18:18.143Z,8.00
2019-02-16T04:20:47.489Z,8.63
2019-02-16T04:23:16.933Z,8.23
2019-02-16T04:25:46.230Z,8.43
2019-02-16T04:28:15.569Z,8.50
2019-02-16T04:30:44.972Z,8.40
2019-02-16T04:33:14.319Z,9.37
2019-02-16T04:35:43.668Z,10.32
2019-02-16T04:38:14.221Z,8.20
2019-02-16T04:40:43.574Z,8.37
2019-02-16T04:43:12.940Z,8.40
2019-02-16T04:45:42.334Z,8.33
2019-02-16T04:48:11.697Z,8.93
2019-02-16T04:50:41.055Z,8.40
2019-02-16T04:53:11.223Z,7.43
2019-02-16T04:55:40.565Z,7.62
2019-02-16T04:58:09.930Z,8.07
2019-02-16T05:00:39.650Z,8.93
2019-02-16T05:03:09.042Z,8.90
2019-02-16T05:05:38.420Z,9.23
2019-02-16T05:08:07.838Z,7.77
2019-02-16T05:10:37.190Z,8.93
2019-02-16T05:13:06.543Z,9.30
2019-02-16T05:15:35.921Z,8.40
2019-02-16T05:18:05.287Z,8.30
2019-02-16T05:20:36.617Z,7.97
2019-02-16T05:23:06.338Z,8.33
2019-02-16T05:25:35.720Z,8.63
2019-02-16T05:28:05.072Z,7.77
2019-02-16T05:30:34.433Z,8.57
2019-02-16T05:33:03.781Z,7.87
2019-02-16T05:35:33.136Z,8.07
2019-02-16T05:38:02.539Z,8.67
2019-02-16T05:40:31.911Z,8.50
2019-02-16T05:43:01.267Z,7.83
2019-02-16T05:45:31.446Z,9.50
2019-02-16T05:48:00.805Z,7.50
2019-02-16T05:50:31.876Z,7.77
2019-02-16T05:53:01.250Z,8.53
2019-02-16T05:55:30.605Z,8.83
2019-02-16T05:57:59.970Z,8.40
2019-02-16T06:00:31.225Z,9.50
2019-02-16T06:03:00.607Z,8.47
2019-02-16T06:05:29.962Z,12.97
2019-02-16T06:07:59.709Z,9.57
2019-02-16T06:10:29.058Z,11.30
2019-02-16T06:12:58.421Z,9.93
2019-02-16T06:15:28.723Z,12.03
2019-02-16T06:17:58.080Z,10.80
2019-02-16T06:20:27.444Z,11.77
2019-02-16T06:23:04.478Z,10.40
2019-02-16T06:25:29.677Z,15.53
2019-02-16T06:27:59.034Z,10.30
2019-02-16T06:30:28.467Z,16.47
2019-02-16T06:32:57.850Z,10.37
2019-02-16T06:35:38.253Z,10.90
2019-02-16T06:38:07.609Z,16.17
2019-02-16T06:40:36.965Z,9.63
2019-02-16T06:43:06.346Z,10.17
2019-02-16T06:45:35.702Z,12.10
2019-02-16T06:48:05.078Z,27.83
2019-02-16T06:50:37.340Z,18.17
2019-02-16T06:53:12.918Z,13.33
2019-02-16T06:55:39.469Z,9.87
2019-02-16T06:58:10.834Z,15.43
2019-02-16T07:00:40.200Z,12.93
2019-02-16T07:03:09.556Z,10.03
2019-02-16T07:05:41.222Z,17.03
2019-02-16T07:08:10.584Z,14.57
2019-02-16T07:10:39.935Z,13.23
2019-02-16T07:13:11.273Z,9.87
2019-02-16T07:15:40.621Z,9.35
2019-02-16T07:18:20.537Z,13.53
2019-02-16T07:20:49.896Z,10.90
2019-02-16T07:23:25.696Z,17.20
2019-02-16T07:25:55.740Z,21.47
2019-02-16T07:28:25.097Z,21.90
2019-02-16T07:30:55.040Z,14.93
2019-02-16T07:33:24.412Z,10.20
2019-02-16T07:35:53.794Z,23.40
2019-02-16T07:38:23.230Z,12.97
2019-02-16T07:40:55.739Z,17.60
2019-02-16T07:43:42.992Z,12.10
2019-02-16T07:46:14.077Z,14.70
2019-02-16T07:48:45.088Z,10.03
2019-02-16T07:51:16.087Z,9.70
2019-02-16T07:53:51.740Z,11.57
2019-02-16T07:56:25.540Z,26.07
2019-02-16T07:58:56.544Z,19.53
2019-02-16T08:01:31.338Z,23.27
2019-02-16T08:04:02.345Z,17.80
2019-02-16T08:06:42.401Z,21.53
2019-02-16T08:09:19.133Z,13.43
2019-02-16T08:11:50.146Z,17.90
2019-02-16T08:14:23.923Z,21.50
2019-02-16T08:17:00.951Z,9.67
2019-02-16T08:19:47.680Z,10.87
2019-02-16T08:22:23.203Z,10.33
2019-02-16T08:25:01.572Z,9.30
2019-02-16T08:27:44.795Z,9.77
2019-02-16T08:30:24.839Z,12.00
2019-02-16T08:32:59.782Z,15.27
2019-02-16T08:35:39.786Z,10.90
2019-02-16T08:38:27.184Z,10.60
2019-02-16T08:41:01.165Z,10.75
2019-02-16T08:43:35.045Z,10.60
2019-02-16T08:46:06.058Z,11.27
2019-02-16T08:48:37.083Z,10.87
2019-02-16T08:51:13.564Z,13.90
2019-02-16T08:53:49.808Z,10.83
2019-02-16T08:56:41.554Z,10.30
2019-02-16T08:59:12.552Z,11.80
2019-02-16T09:01:46.161Z,11.77
2019-02-16T09:04:23.102Z,11.33
2019-02-16T09:06:57.611Z,14.73
2019-02-16T09:09:31.741Z,14.20
2019-02-16T09:12:02.751Z,14.93
2019-02-16T09:14:43.857Z,12.83
2019-02-16T09:17:14.877Z,14.57
2019-02-16T09:19:54.640Z,15.60
2019-02-16T09:22:25.659Z,17.37
2019-02-16T09:25:06.675Z,14.80
2019-02-16T09:27:46.994Z,16.27
2019-02-16T09:33:15.496Z,15.90
2019-02-16T09:35:58.635Z,30.63
2019-02-16T09:38:35.728Z,28.80
2019-02-16T09:41:07.179Z,27.17
2019-02-16T09:43:47.180Z,21.13
2019-02-16T09:46:34.747Z,32.73
2019-02-16T09:49:14.893Z,24.70
2019-02-16T09:51:45.955Z,18.37
2019-02-16T09:54:35.422Z,15.40
2019-02-16T09:57:06.844Z,20.70
2019-02-16T09:59:54.098Z,14.90
2019-02-16T10:02:30.938Z,13.93
2019-02-16T10:05:18.368Z,18.63
2019-02-16T10:07:59.367Z,14.63
2019-02-16T10:10:30.386Z,15.23
2019-02-16T10:13:04.597Z,18.13
2019-02-16T10:15:41.435Z,19.40
2019-02-16T10:18:17.334Z,13.17
2019-02-16T10:20:48.337Z,11.30
2019-02-16T10:23:25.663Z,11.73
2019-02-16T10:25:59.377Z,11.53
2019-02-16T10:28:31.021Z,10.67
2019-02-16T10:31:07.700Z,14.27
2019-02-16T10:33:38.736Z,12.73
2019-02-16T10:36:15.382Z,13.37
2019-02-16T10:38:50.763Z,14.60
2019-02-16T10:41:21.752Z,10.87
2019-02-16T10:43:52.758Z,12.30
2019-02-16T10:46:33.171Z,10.20
2019-02-16T10:49:07.096Z,9.47
2019-02-16T10:51:41.847Z,11.50
2019-02-16T10:54:15.670Z,11.17
2019-02-16T10:56:46.694Z,10.77
2019-02-16T10:59:19.279Z,9.47
2019-02-16T11:01:58.749Z,12.07
2019-02-16T11:04:38.166Z,13.57
2019-02-16T11:07:08.002Z,11.10
2019-02-16T11:09:44.517Z,10.70
2019-02-16T11:12:21.230Z,12.83
2019-02-16T11:14:58.015Z,20.03
2019-02-16T11:17:43.999Z,14.40
2019-02-16T11:20:38.341Z,11.63
2019-02-16T11:23:18.406Z,8.83
2019-02-16T11:26:05.297Z,9.87
2019-02-16T11:28:52.679Z,9.43
2019-02-16T11:31:27.685Z,10.33
2019-02-16T11:34:01.675Z,9.77
2019-02-16T11:36:42.331Z,10.30
2019-02-16T11:39:13.345Z,12.27
2019-02-16T11:42:00.801Z,11.03
2019-02-16T11:44:31.814Z,10.03
2019-02-16T11:47:02.833Z,9.17
2019-02-16T11:49:33.949Z,13.97
2019-02-16T11:52:21.452Z,8.87
2019-02-16T11:55:00.779Z,7.40
2019-02-16T11:57:40.758Z,7.30
2019-02-16T12:00:30.359Z,7.17
2019-02-16T12:03:01.572Z,6.93
2019-02-16T12:05:35.505Z,7.50
2019-02-16T12:08:09.297Z,12.47
2019-02-16T12:10:49.279Z,9.73
2019-02-16T12:13:21.252Z,7.53
2019-02-16T12:16:08.321Z,8.08
2019-02-16T12:18:39.331Z,8.57
2019-02-16T12:21:10.351Z,7.35
2019-02-16T12:23:57.226Z,8.20
2019-02-16T12:26:28.225Z,6.80
2019-02-16T12:29:05.400Z,8.80
2019-02-16T12:31:36.440Z,10.97
2019-02-16T12:34:27.296Z,9.33
2019-02-16T12:36:58.287Z,8.13
2019-02-16T12:39:35.216Z,9.30
2019-02-16T12:42:09.212Z,8.97
2019-02-16T12:44:49.415Z,12.27
2019-02-16T12:47:23.274Z,11.45
2019-02-16T12:49:55.386Z,11.20
2019-02-16T12:55:36.790Z,17.60
2019-02-16T12:58:07.785Z,10.90
2019-02-16T13:00:38.826Z,12.67
2019-02-16T13:03:13.203Z,12.10
2019-02-16T13:06:02.583Z,11.97
2019-02-16T13:08:42.849Z,16.23
2019-02-16T13:11:25.851Z,9.77
2019-02-16T13:13:56.958Z,11.57
2019-02-16T13:16:39.608Z,12.33
2019-02-16T13:19:18.301Z,10.33
2019-02-16T13:21:52.130Z,9.90
2019-02-16T13:24:35.426Z,13.83
2019-02-16T13:27:11.887Z,10.50
2019-02-16T13:29:53.780Z,10.50
2019-02-16T13:32:24.776Z,11.00
2019-02-16T13:34:58.637Z,11.93
2019-02-16T13:37:46.396Z,10.30
2019-02-16T13:40:20.206Z,12.33
2019-02-16T13:42:53.850Z,11.10
2019-02-16T13:45:24.873Z,15.20
2019-02-16T13:47:55.909Z,14.83
2019-02-16T13:50:39.192Z,12.27
2019-02-16T13:53:16.623Z,11.53
2019-02-16T13:55:50.420Z,9.50
2019-02-16T13:58:21.428Z,10.93
2019-02-16T14:01:11.307Z,12.37
2019-02-16T14:03:58.352Z,9.20
2019-02-16T14:06:35.094Z,13.57
2019-02-16T14:09:15.527Z,9.17
2019-02-16T14:11:49.357Z,7.73
2019-02-16T14:14:32.525Z,9.20
2019-02-16T14:17:09.457Z,8.27
2019-02-16T14:19:38.817Z,8.20
2019-02-16T14:22:08.180Z,7.47
2019-02-16T14:24:42.835Z,9.17
2019-02-16T14:27:12.198Z,10.67
2019-02-16T14:29:41.576Z,7.03
2019-02-16T14:32:11.060Z,8.93
2019-02-16T14:34:40.416Z,14.63
2019-02-16T14:37:11.420Z,8.73
2019-02-16T14:39:42.197Z,6.90
2019-02-16T14:42:11.551Z,11.20
2019-02-16T14:44:40.910Z,6.90
2019-02-16T14:47:11.250Z,8.67
2019-02-16T14:49:40.617Z,7.57
2019-02-16T14:52:09.994Z,7.57
2019-02-16T14:54:39.641Z,7.97
2019-02-16T14:57:09.001Z,8.83
2019-02-16T14:59:38.359Z,7.00
2019-02-16T15:02:07.834Z,6.90
2019-02-16T15:04:37.347Z,12.67
2019-02-16T15:07:06.904Z,10.13
2019-02-16T15:09:38.261Z,8.13
2019-02-16T15:12:07.648Z,9.73
2019-02-16T15:14:37.007Z,7.77
2019-02-16T15:17:06.775Z,7.80
2019-02-16T15:19:36.129Z,9.37
2019-02-16T15:22:05.667Z,8.70
2019-02-16T15:24:35.042Z,7.70
2019-02-16T15:27:04.406Z,12.70
2019-02-16T15:29:53.138Z,8.27
2019-02-16T15:32:22.499Z,7.27
2019-02-16T15:34:51.852Z,11.20
2019-02-16T15:37:25.053Z,8.47
2019-02-16T15:39:54.462Z,9.63
2019-02-16T15:42:29.189Z,10.20
2019-02-16T15:44:58.548Z,7.63
2019-02-16T15:47:27.918Z,13.90
2019-02-16T15:49:57.306Z,13.30
2019-02-16T15:52:26.680Z,12.60
2019-02-16T15:54:56.042Z,17.07
2019-02-16T15:57:26.141Z,24.80
2019-02-16T15:59:55.528Z,18.40
2019-02-16T16:02:24.919Z,19.97
2019-02-16T16:04:54.312Z,17.93
2019-02-16T16:07:23.709Z,17.63
2019-02-16T16:09:54.704Z,22.50
2019-02-16T16:12:25.823Z,30.27
2019-02-16T16:14:56.836Z,23.87
2019-02-16T16:17:30.290Z,22.10
2019-02-16T16:20:07.307Z,13.03
2019-02-16T16:22:54.189Z,21.67
2019-02-16T16:25:25.188Z,21.23
2019-02-16T16:28:02.224Z,13.73
2019-02-16T16:30:39.091Z,13.00
2019-02-16T16:33:12.921Z,20.50
2019-02-16T16:35:43.936Z,15.13
2019-02-16T16:38:15.016Z,16.60
2019-02-16T16:40:51.672Z,9.57
2019-02-16T16:43:25.532Z,10.73
2019-02-16T16:46:09.101Z,13.93
2019-02-16T16:48:40.106Z,11.70
2019-02-16T16:51:21.335Z,12.00
2019-02-16T16:53:58.312Z,8.90
2019-02-16T16:56:38.372Z,11.23
2019-02-16T16:59:12.560Z,7.87
2019-02-16T17:01:59.851Z,14.80
2019-02-16T17:04:30.863Z,11.47
2019-02-16T17:07:22.245Z,10.90
2019-02-16T17:09:53.245Z,14.63
2019-02-16T17:12:34.766Z,9.10
2019-02-16T17:15:06.434Z,8.10
2019-02-16T17:17:56.308Z,9.00
2019-02-16T17:20:39.489Z,9.55
2019-02-16T17:23:10.542Z,11.53
2019-02-16T17:25:41.546Z,9.80
2019-02-16T17:28:27.594Z,12.57
2019-02-16T17:31:16.923Z,13.10
2019-02-16T17:34:16.070Z,10.33
2019-02-16T17:36:47.077Z,12.43
2019-02-16T17:39:25.228Z,11.17
2019-02-16T17:42:05.520Z,8.17
2019-02-16T17:44:46.319Z,9.13
2019-02-16T17:47:33.491Z,10.08
2019-02-16T17:50:07.309Z,11.80
2019-02-16T17:52:54.818Z,12.23
2019-02-16T17:55:31.953Z,10.10
2019-02-16T17:58:14.704Z,11.97
2019-02-16T18:00:57.271Z,10.03
2019-02-16T18:03:28.277Z,9.83
2019-02-16T18:05:59.282Z,12.30
2019-02-16T18:08:48.737Z,10.33
2019-02-16T18:11:22.723Z,9.43
2019-02-16T18:14:07.229Z,9.13
2019-02-16T18:16:38.239Z,10.87
2019-02-16T18:19:21.743Z,12.30
2019-02-16T18:21:52.733Z,13.60
2019-02-16T18:24:29.685Z,12.27
2019-02-16T18:27:06.659Z,11.43
2019-02-16T18:29:44.369Z,8.90
2019-02-16T18:32:31.553Z,6.93
2019-02-16T18:35:08.920Z,8.57
2019-02-16T18:37:55.108Z,10.33
2019-02-16T18:40:29.845Z,9.37
2019-02-16T18:43:03.913Z,12.27
2019-02-16T18:45:55.115Z,12.23
2019-02-16T18:48:35.172Z,11.97
2019-02-16T18:51:13.265Z,9.38
2019-02-16T18:53:56.540Z,9.63
2019-02-16T18:56:34.281Z,13.50
2019-02-16T18:59:14.445Z,11.23
2019-02-16T19:02:04.241Z,13.90
2019-02-16T19:04:44.113Z,9.47
2019-02-16T19:07:31.284Z,9.80
2019-02-16T19:10:05.020Z,9.43
2019-02-16T19:12:39.739Z,8.97
2019-02-16T19:15:14.125Z,11.67
2019-02-16T19:18:03.238Z,15.43
2019-02-16T19:20:50.731Z,12.93
2019-02-16T19:23:38.160Z,16.40
2019-02-16T19:26:11.951Z,16.02
2019-02-16T19:28:59.236Z,15.70
2019-02-16T19:31:39.162Z,13.18
2019-02-16T19:34:25.585Z,16.53
2019-02-16T19:36:59.583Z,9.60
2019-02-16T19:39:30.596Z,13.63
2019-02-16T19:42:02.220Z,12.00
2019-02-16T19:44:51.271Z,12.00
2019-02-16T19:47:24.802Z,13.80
2019-02-16T19:49:58.539Z,11.63
2019-02-16T19:52:40.573Z,9.43
2019-02-16T19:55:29.393Z,10.63
2019-02-16T19:58:00.406Z,12.50
2019-02-16T20:00:43.540Z,12.50
2019-02-16T20:03:18.770Z,12.23
2019-02-16T20:06:01.717Z,12.07
2019-02-16T20:08:32.818Z,10.03
2019-02-16T20:11:18.956Z,12.67
2019-02-16T20:13:49.974Z,9.20
2019-02-16T20:16:20.980Z,10.07
2019-02-16T20:18:51.984Z,12.10
2019-02-16T20:21:25.820Z,9.60
2019-02-16T20:24:00.035Z,11.97
2019-02-16T20:26:37.063Z,11.07
2019-02-16T20:29:17.003Z,11.47
2019-02-16T20:32:05.365Z,9.20
2019-02-16T20:34:53.056Z,10.43
2019-02-16T20:37:27.732Z,9.23
2019-02-16T20:40:13.821Z,11.13
2019-02-16T20:42:51.463Z,9.73
2019-02-16T20:45:31.273Z,9.47
2019-02-16T20:48:02.294Z,8.17
2019-02-16T20:50:39.321Z,13.43
2019-02-16T20:53:16.114Z,9.90
2019-02-16T20:55:53.109Z,14.60
2019-02-16T20:58:43.236Z,10.70
2019-02-16T21:01:29.346Z,11.37
2019-02-16T21:04:01.330Z,11.37
2019-02-16T21:06:48.183Z,8.60
2019-02-16T21:09:28.193Z,9.53
2019-02-16T21:11:59.190Z,11.43
2019-02-16T21:14:42.554Z,10.43
2019-02-16T21:17:25.809Z,10.43
2019-02-16T21:19:56.858Z,11.60
2019-02-16T21:22:27.855Z,10.97
2019-02-16T21:25:03.369Z,10.57
2019-02-16T21:27:57.812Z,9.83
2019-02-16T21:30:27.348Z,11.88
2019-02-16T21:33:04.048Z,9.30
2019-02-16T21:35:46.922Z,8.53
2019-02-16T21:38:17.933Z,11.17
2019-02-16T21:40:48.941Z,11.63
2019-02-16T21:43:22.439Z,11.23
2019-02-16T21:46:09.803Z,11.10
2019-02-16T21:48:46.826Z,11.77
2019-02-16T21:51:26.805Z,12.63
2019-02-16T21:53:57.829Z,10.60
2019-02-16T21:56:40.537Z,9.17
2019-02-16T21:59:18.986Z,12.97
2019-02-16T22:01:59.249Z,9.73
2019-02-16T22:04:36.708Z,12.83
2019-02-16T22:07:07.992Z,19.47
2019-02-16T22:09:50.979Z,12.17
2019-02-16T22:12:38.110Z,12.27
2019-02-16T22:15:09.335Z,24.43
2019-02-16T22:17:39.355Z,11.37
2019-02-16T22:20:10.490Z,13.93
2019-02-16T22:22:39.951Z,11.63
2019-02-16T22:25:09.882Z,9.50
2019-02-16T22:27:39.220Z,12.00
2019-02-16T22:30:11.173Z,10.67
2019-02-16T22:32:40.565Z,10.00
2019-02-16T22:35:10.085Z,11.83
2019-02-16T22:37:43.428Z,18.23
2019-02-16T22:40:12.942Z,13.57
2019-02-16T22:42:42.346Z,14.67
2019-02-16T22:45:16.378Z,13.18
2019-02-16T22:47:45.749Z,15.47
2019-02-16T22:50:15.114Z,19.30
2019-02-16T22:52:44.519Z,13.30
2019-02-16T22:55:13.902Z,16.80
2019-02-16T22:57:43.277Z,11.97
2019-02-16T23:00:18.865Z,12.00
2019-02-16T23:02:54.786Z,13.33
2019-02-16T23:05:24.355Z,13.57
2019-02-16T23:07:54.237Z,16.67
2019-02-16T23:10:23.621Z,14.18
2019-02-16T23:12:52.996Z,13.83
2019-02-16T23:15:27.281Z,18.00
2019-02-16T23:17:56.656Z,17.43
2019-02-16T23:20:27.613Z,17.80
2019-02-16T23:22:57.002Z,16.63
2019-02-16T23:25:26.374Z,18.40
2019-02-16T23:27:55.767Z,19.10
2019-02-16T23:30:25.301Z,22.20
2019-02-16T23:32:56.889Z,12.07
2019-02-16T23:35:25.786Z,19.20
2019-02-16T23:37:55.160Z,13.00
2019-02-16T23:40:24.517Z,15.80
2019-02-16T23:42:53.907Z,14.90
2019-02-16T23:45:23.275Z,16.97
2019-02-16T23:47:52.659Z,16.33
2019-02-16T23:50:22.299Z,12.20
2019-02-16T23:52:51.726Z,14.90
2019-02-16T23:55:21.201Z,12.63
2019-02-16T23:57:52.717Z,11.03
